Latest Weather Observations for Troughton Island

IDD60801

Issued at 3:31 pm CST Saturday 29 August 2015 (issued every 30 minutes, with the page automatically refreshed every 10 minutes)

About weather observations | Map of weather stations | Latest weather observations for NT | Other Formats
Station Details ID: 001007 Name: TROUGHTON ISLAND Lat: -13.75 Lon: 126.15 Height: 6.0 m
Data from the previous 72 hours. | See also: Recent months at Troughton Island
Date/Time
CST
Temp
°C
App
Temp
°C
Dew
Point
Rel
Hum
%
Delta-T
°C
Wind Press
QNH
hPa
Press
MSL
hPa
Rain
since 9 am
mm
Dir
 
Spd
km/h
Gust
km/h
Spd
kts
Gust
kts
29/03:30pm 28.5 31.3 23.0 72 3.8 NNW 13 17 7 9 1014.1 1014.0 0.0
29/03:00pm 27.8 30.3 22.5 73 3.6 NNW 13 20 7 11 1014.6 1014.5 0.0
29/02:30pm 28.1 30.5 22.3 70 3.9 N 13 19 7 10 1015.1 1015.0 0.0
29/02:00pm 27.6 29.9 22.8 75 3.3 N 15 20 8 11 1015.5 1015.4 0.0
29/01:30pm 28.4 31.3 23.1 73 3.6 N 13 19 7 10 1016.0 1015.9 0.0
29/01:00pm 28.1 30.8 22.8 73 3.6 NE 13 15 7 8 1016.6 1016.5 0.0
29/12:30pm 28.2 30.9 22.9 73 3.6 NE 13 15 7 8 1016.9 1016.8 0.0
29/12:00pm 28.4 31.1 22.9 72 3.7 NE 13 17 7 9 1017.2 1017.1 0.0
29/11:30am 28.2 30.9 22.9 73 3.6 ENE 13 15 7 8 1017.7 1017.6 0.0
29/11:00am 28.1 32.2 23.0 74 3.5 NNW 6 11 3 6 1017.7 1017.6 0.0
29/10:30am 27.1 31.0 22.5 76 3.1 SW 6 9 3 5 1017.6 1017.5 0.0
29/10:00am 27.1 30.9 22.7 77 3.0 SW 7 9 4 5 1017.4 1017.3 0.0
29/09:30am 26.8 30.3 22.8 79 2.7 SSW 9 11 5 6 1017.1 1017.0 0.0
29/09:00am 26.4 29.7 22.5 79 2.6 SSW 9 11 5 6 1016.8 1016.7 0.0
29/08:30am 26.1 29.1 22.6 81 2.4 S 11 13 6 7 1016.4 1016.3 0.0
29/08:00am 25.6 28.6 22.7 84 2.0 S 11 15 6 8 1016.2 1016.1 0.0
29/07:30am 25.0 27.7 22.9 88 1.4 SSW 13 15 7 8 1015.9 1015.8 0.0
29/07:00am 24.9 27.2 22.8 88 1.4 SSW 15 17 8 9 1015.5 1015.4 0.0
29/06:30am 25.0 27.4 22.9 88 1.4 SW 15 17 8 9 1015.1 1015.0 0.0
29/06:00am 25.0 27.1 23.1 89 1.3 SW 17 19 9 10 1014.9 1014.8 0.0
29/05:30am 25.2 27.0 23.3 89 1.3 SW 19 20 10 11 1014.7 1014.6 0.0
29/05:00am 25.0 27.0 22.9 88 1.4 SW 17 20 9 11 1014.6 1014.5 0.0
29/04:30am 25.0 27.4 23.6 92 1.0 SSW 17 19 9 10 1014.6 1014.5 0.0
29/04:00am 25.0 27.4 23.6 92 1.0 SSW 17 20 9 11 1014.8 1014.7 0.0
29/03:30am 25.3 27.3 23.9 92 1.0 SSW 20 24 11 13 1015.0 1014.9 0.0
29/03:00am 25.2 27.4 24.0 93 0.8 SSW 19 22 10 12 1015.4 1015.3 0.0
29/02:30am 25.2 28.5 23.8 92 1.0 SW 13 17 7 9 1015.6 1015.5 0.0
29/02:00am 25.3 28.7 24.1 93 0.8 SW 13 17 7 9 1015.8 1015.7 0.0
29/01:30am 25.1 28.7 23.7 92 1.0 W 11 13 6 7 1015.9 1015.8 0.0
29/01:00am 25.1 29.1 23.7 92 1.0 W 9 11 5 6 1016.1 1016.0 0.0
29/12:30am 25.2 29.1 23.6 91 1.1 W 9 11 5 6 1016.4 1016.3 0.0
29/12:00am 25.2 29.0 23.4 90 1.2 W 9 11 5 6 1016.7 1016.6 0.0
 
Date/Time
CST
Temp
°C
App
Temp
°C
Dew
Point
Rel
Hum
%
Delta-T
°C
Wind Press
QNH
hPa
Press
MSL
hPa
Rain
since 9 am
mm
Dir
 
Spd
km/h
Gust
km/h
Spd
kts
Gust
kts
28/11:30pm 25.1 29.2 23.3 90 1.2 W 7 9 4 5 1016.8 1016.7 0.0
28/11:00pm 25.3 28.8 23.5 90 1.2 WSW 11 11 6 6 1016.6 1016.5 0.0
28/10:30pm 25.5 29.5 23.7 90 1.2 W 9 13 5 7 1016.7 1016.6 0.0
28/10:00pm 25.5 28.4 23.2 87 1.6 W 13 15 7 8 1016.4 1016.3 0.0
28/09:30pm 25.5 28.7 23.0 86 1.7 WNW 11 13 6 7 1016.1 1016.0 0.0
28/09:00pm 25.5 28.7 23.0 86 1.7 WNW 11 13 6 7 1015.9 1015.8 0.0
28/08:30pm 25.6 28.7 22.9 85 1.8 WNW 11 13 6 7 1015.3 1015.2 0.0
28/08:00pm 25.7 28.4 22.8 84 2.0 NW 13 13 7 7 1014.9 1014.8 0.0
28/07:30pm 25.7 28.0 22.0 80 2.5 NNW 13 15 7 8 1014.6 1014.5 0.0
28/07:00pm 26.2 28.4 21.8 77 2.9 NNW 13 15 7 8 1014.3 1014.2 0.0
28/06:30pm 27.0 30.1 22.8 78 2.8 NNW 11 13 6 7 1014.0 1013.9 0.0
28/06:00pm 27.6 30.7 22.8 75 3.3 NW 11 15 6 8 1013.7 1013.6 0.0
28/05:30pm 27.9 30.9 22.6 73 3.6 NW 11 15 6 8 1013.5 1013.4 0.0
28/05:00pm 28.4 31.5 22.9 72 3.7 WNW 11 15 6 8 1013.4 1013.3 0.0
28/04:30pm 28.4 30.9 22.4 70 4.1 WNW 13 15 7 8 1013.3 1013.2 0.0
28/04:00pm 28.3 30.7 21.6 67 4.5 WNW 11 17 6 9 1013.7 1013.6 0.0
28/03:30pm 28.1 30.7 21.9 69 4.2 WNW 11 13 6 7 1014.0 1013.9 0.0
28/03:00pm 28.3 32.2 22.5 71 3.9 SSW 6 9 3 5 1014.5 1014.4 0.0
28/02:30pm 28.1 31.8 22.3 70 3.9 E 6 9 3 5 1015.1 1015.0 0.0
28/02:00pm 28.4 31.1 21.4 66 4.7 NE 9 15 5 8 1015.6 1015.5 0.0
28/01:30pm 28.1 31.1 22.6 72 3.7 NNE 11 13 6 7 1016.1 1016.0 0.0
28/01:00pm 28.0 31.5 22.9 74 3.5 WNW 9 13 5 7 1016.3 1016.2 0.0
28/12:30pm 26.9 30.7 22.7 78 2.8 WNW 7 9 4 5 1016.6 1016.5 0.0
28/12:00pm 26.6 30.5 22.9 80 2.5 E 7 9 4 5 1017.0 1016.9 0.0
28/11:30am 26.2 29.9 22.5 80 2.5 W 7 9 4 5 1017.2 1017.1 0.0
28/11:00am 27.0 30.6 22.4 76 3.1 WNW 7 11 4 6 1017.5 1017.4 0.0
28/10:30am 26.9 30.6 22.5 77 3.0 WNW 7 11 4 6 1017.5 1017.4 0.0
28/10:00am 27.4 30.7 22.6 75 3.2 NW 9 13 5 7 1017.4 1017.3 0.0
28/09:30am 26.9 30.2 22.5 77 3.0 NW 9 11 5 6 1017.1 1017.0 0.0
28/09:00am 26.6 30.4 22.7 79 2.6 NW 7 9 4 5 1016.7 1016.6 0.0
28/08:30am 25.9 29.8 22.6 82 2.2 NW 6 7 3 4 1016.5 1016.4 0.0
28/08:00am 24.9 29.1 23.1 90 1.2 W 6 7 3 4 1016.2 1016.1 0.0
28/07:30am 23.9 27.8 22.9 94 0.7 W 7 7 4 4 1015.8 1015.7 0.0
28/07:00am 23.8 27.5 22.6 93 0.8 W 7 7 4 4 1015.5 1015.4 0.0
28/06:30am 23.8 27.5 22.6 93 0.8 W 7 9 4 5 1015.2 1015.1 0.0
28/06:00am 23.9 27.5 22.3 91 1.1 WSW 7 9 4 5 1014.9 1014.8 0.0
28/05:30am 24.0 27.3 21.9 88 1.4 WSW 7 9 4 5 1014.5 1014.4 0.0
28/05:00am 24.2 27.2 21.9 87 1.5 WSW 9 11 5 6 1014.6 1014.5 0.0
28/04:30am 24.2 27.1 22.5 90 1.1 WSW 11 13 6 7 1014.4 1014.3 0.0
28/04:00am 24.1 27.2 22.2 89 1.3 W 9 11 5 6 1014.5 1014.4 0.0
28/03:30am 24.1 27.3 22.4 90 1.1 W 9 9 5 5 1014.5 1014.4 0.0
28/03:00am 24.0 27.2 22.4 91 1.1 WNW 9 9 5 5 1014.6 1014.5 0.0
28/02:30am 24.0 27.7 22.6 92 0.9 W 7 11 4 6 1014.8 1014.7 0.0
28/02:00am 24.0 27.8 22.8 93 0.8 W 7 7 4 4 1015.1 1015.0 0.0
28/01:30am 24.2 29.1 23.0 93 0.8 SW 2 6 1 3 1015.3 1015.2 0.0
28/01:00am 24.2 28.3 23.0 93 0.8 SW 6 7 3 4 1015.4 1015.3 0.0
28/12:30am 24.1 29.1 22.5 91 1.1 CALM 0 0 0 0 1015.8 1015.7 0.0
28/12:00am 24.5 29.7 22.9 91 1.1 CALM 0 0 0 0 1015.9 1015.8 0.0
 
Date/Time
CST
Temp
°C
App
Temp
°C
Dew
Point
Rel
Hum
%
Delta-T
°C
Wind Press
QNH
hPa
Press
MSL
hPa
Rain
since 9 am
mm
Dir
 
Spd
km/h
Gust
km/h
Spd
kts
Gust
kts
27/11:30pm 24.7 29.9 22.8 89 1.3 CALM 0 0 0 0 1015.9 1015.8 0.0
27/11:00pm 24.7 29.0 22.6 88 1.4 NNW 4 6 2 3 1016.1 1016.0 0.0
27/10:30pm 25.0 28.9 22.5 86 1.7 NNW 6 6 3 3 1016.0 1015.9 0.0
27/10:00pm 25.1 29.0 22.6 86 1.7 NNW 6 7 3 4 1015.9 1015.8 0.0
27/09:30pm 25.4 29.1 22.5 84 1.9 NNW 7 11 4 6 1015.9 1015.8 0.0
27/09:00pm 25.9 29.4 22.8 83 2.1 N 9 13 5 7 1015.6 1015.5 0.0
27/08:30pm 25.7 28.7 22.6 83 2.1 NNW 11 13 6 7 1015.1 1015.0 0.0
27/08:00pm 25.9 28.1 22.6 82 2.2 NNW 15 19 8 10 1014.7 1014.6 0.0
27/07:30pm 26.3 28.5 22.6 80 2.5 NNW 15 19 8 10 1014.4 1014.3 0.0
27/07:00pm 26.6 28.1 22.0 76 3.1 N 17 20 9 11 1014.1 1014.0 0.0
27/06:30pm 27.3 28.6 21.6 71 3.8 NNW 17 22 9 12 1014.0 1013.9 0.0
27/06:00pm 27.1 29.4 22.1 74 3.4 N 13 17 7 9 1013.9 1013.8 0.0
27/05:30pm 27.7 29.7 22.2 72 3.7 N 15 19 8 10 1013.7 1013.6 0.0
27/05:00pm 28.1 30.3 21.9 69 4.2 N 13 19 7 10 1013.8 1013.7 0.0
27/04:30pm 28.5 31.1 22.7 71 3.9 N 13 17 7 9 1013.8 1013.7 0.0
27/04:00pm 29.3 32.4 22.8 68 4.4 NW 11 15 6 8 1013.8 1013.7 0.0
27/03:30pm 29.4 32.7 22.6 67 4.6 WNW 9 13 5 7 1014.0 1013.9 0.0
27/03:00pm 29.3 32.5 23.0 69 4.3 WNW 11 15 6 8 1014.2 1014.1 0.0
27/02:30pm 28.8 31.7 22.5 68 4.3 WNW 11 15 6 8 1014.4 1014.3 0.0
27/02:00pm 30.2 34.1 22.9 65 5.0 NE 7 13 4 7 1014.6 1014.5 0.0
27/01:30pm 29.0 32.9 22.5 68 4.4 WSW 6 9 3 5 1015.0 1014.9 0.0
27/01:00pm 28.5 32.4 23.0 72 3.8 W 7 11 4 6 1015.3 1015.2 0.0
27/12:30pm 28.7 32.2 22.9 71 4.0 SSW 9 11 5 6 1015.6 1015.5 0.0
27/12:00pm 28.2 31.6 22.7 72 3.7 SW 9 11 5 6 1016.0 1015.9 0.0
27/11:30am 28.4 31.4 21.9 68 4.4 SSW 9 11 5 6 1016.2 1016.1 0.0
27/11:00am 28.5 32.6 23.9 76 3.2 SSW 9 11 5 6 1016.5 1016.4 0.0
27/10:30am 27.9 31.6 23.9 79 2.8 SSW 11 15 6 8 1016.6 1016.5 0.0
27/10:00am 27.3 31.1 23.5 80 2.6 SSW 9 13 5 7 1016.6 1016.5 0.0
27/09:30am 27.0 30.8 23.5 81 2.4 SSW 9 13 5 7 1016.4 1016.3 0.0
27/09:00am 26.7 31.1 23.4 82 2.3 SSE 6 9 3 5 1016.0 1015.9 0.0
27/08:30am 25.8 30.4 23.8 89 1.4 SE 6 7 3 4 1015.7 1015.6 0.0
27/08:00am 25.3 30.1 24.1 93 0.8 S 6 6 3 3 1015.3 1015.2 0.0
27/07:30am 24.6 29.1 23.6 94 0.7 S 6 7 3 4 1014.8 1014.7 0.0
27/07:00am 24.5 28.8 23.3 93 0.8 SSW 6 7 3 4 1014.8 1014.7 0.0
27/06:30am 24.7 28.8 22.9 90 1.2 SW 6 7 3 4 1014.6 1014.5 0.0
27/06:00am 25.0 29.1 23.2 90 1.2 SW 7 9 4 5 1014.4 1014.3 0.0
27/05:30am 25.0 28.6 23.1 89 1.3 SSW 9 11 5 6 1014.2 1014.1 0.0
27/05:00am 25.2 28.1 23.1 88 1.4 SW 13 15 7 8 1014.1 1014.0 0.0
27/04:30am 25.3 28.2 23.2 88 1.4 SW 13 15 7 8 1014.1 1014.0 0.0
27/04:00am 25.3 28.3 23.4 89 1.3 SW 13 15 7 8 1014.0 1013.9 0.0
27/03:30am 25.4 27.9 23.1 87 1.6 SW 15 17 8 9 1014.0 1013.9 0.0
27/03:00am 25.4 28.3 23.1 87 1.6 SW 13 15 7 8 1014.1 1014.0 0.0
27/02:30am 25.2 28.2 23.3 89 1.3 SW 13 15 7 8 1014.2 1014.1 0.0
27/02:00am 25.4 28.4 23.3 88 1.4 WSW 13 15 7 8 1014.5 1014.4 0.0
27/01:30am 25.3 28.5 23.0 87 1.6 WSW 11 13 6 7 1014.8 1014.7 0.0
27/01:00am 25.4 28.8 23.3 88 1.4 WSW 11 13 6 7 1015.0 1014.9 0.0
27/12:30am 25.5 29.0 23.6 89 1.3 WSW 11 13 6 7 1015.1 1015.0 0.0
27/12:00am 25.5 29.3 23.4 88 1.4 W 9 11 5 6 1015.2 1015.1 0.0
 
Date/Time
CST
Temp
°C
App
Temp
°C
Dew
Point
Rel
Hum
%
Delta-T
°C
Wind Press
QNH
hPa
Press
MSL
hPa
Rain
since 9 am
mm
Dir
 
Spd
km/h
Gust
km/h
Spd
kts
Gust
kts
26/11:30pm 25.4 29.0 23.1 87 1.6 W 9 11 5 6 1015.1 1015.0 0.0
26/11:00pm 25.4 29.4 23.1 87 1.6 W 7 9 4 5 1015.1 1015.0 0.0
26/10:30pm 25.4 28.9 22.9 86 1.7 WNW 9 9 5 5 1015.2 1015.1 0.0
26/10:00pm 25.3 29.5 23.4 89 1.3 WNW 7 9 4 5 1015.1 1015.0 0.0
26/09:30pm 25.3 28.5 23.0 87 1.6 NNW 11 11 6 6 1014.9 1014.8 0.0
26/09:00pm 25.4 28.8 22.7 85 1.8 NW 9 11 5 6 1014.9 1014.8 0.0
26/08:30pm 25.5 28.9 22.0 81 2.3 NW 7 9 4 5 1014.7 1014.6 0.0
26/08:00pm 25.9 28.9 22.0 79 2.6 WNW 9 11 5 6 1014.4 1014.3 0.0
26/07:30pm 26.4 29.4 22.0 77 2.9 WNW 9 11 5 6 1014.0 1013.9 0.0
26/07:00pm 26.8 29.4 22.0 75 3.2 W 11 11 6 6 1013.8 1013.7 0.0
26/06:30pm 27.6 30.2 21.9 71 3.8 WNW 11 13 6 7 1013.5 1013.4 0.0
26/06:00pm 28.2 30.5 22.0 69 4.2 W 13 15 7 8 1013.4 1013.3 0.0
26/05:30pm 28.4 30.6 21.2 65 4.8 W 11 15 6 8 1013.3 1013.2 0.0

Other Formats:

Comma delimited format used in spreadsheet applications
http://www.bom.gov.au/fwo/IDD60801/IDD60801.94102.axf

JavaScript Object Notation format (JSON) in row-major order
http://www.bom.gov.au/fwo/IDD60801/IDD60801.94102.json